sensor_id;sensor_type;location;lat;lon;timestamp;temperature;humidity
54158;DHT22;40065;49.894;10.358;2024-01-11T00:00:29;-4.70;99.90
54158;DHT22;40065;49.894;10.358;2024-01-11T00:05:31;-4.80;99.90
54158;DHT22;40065;49.894;10.358;2024-01-11T00:10:33;-4.80;99.90
54158;DHT22;40065;49.894;10.358;2024-01-11T00:15:35;-5.00;99.90
54158;DHT22;40065;49.894;10.358;2024-01-11T00:20:37;-5.00;99.90
54158;DHT22;40065;49.894;10.358;2024-01-11T00:25:39;-5.00;99.90
54158;DHT22;40065;49.894;10.358;2024-01-11T00:30:41;-5.00;99.90
54158;DHT22;40065;49.894;10.358;2024-01-11T00:35:43;-5.10;99.90
54158;DHT22;40065;49.894;10.358;2024-01-11T00:40:48;-5.30;99.90
54158;DHT22;40065;49.894;10.358;2024-01-11T00:45:50;-5.20;99.90
54158;DHT22;40065;49.894;10.358;2024-01-11T00:50:52;-5.30;99.90
54158;DHT22;40065;49.894;10.358;2024-01-11T00:55:54;-5.40;99.90
54158;DHT22;40065;49.894;10.358;2024-01-11T01:00:56;-5.30;99.90
54158;DHT22;40065;49.894;10.358;2024-01-11T01:05:58;-5.40;99.90
54158;DHT22;40065;49.894;10.358;2024-01-11T01:11:00;-5.50;99.90
54158;DHT22;40065;49.894;10.358;2024-01-11T01:16:02;-5.60;99.90
54158;DHT22;40065;49.894;10.358;2024-01-11T01:21:04;-5.60;99.90
54158;DHT22;40065;49.894;10.358;2024-01-11T01:26:08;-5.40;99.90
54158;DHT22;40065;49.894;10.358;2024-01-11T01:31:11;-5.40;99.90
54158;DHT22;40065;49.894;10.358;2024-01-11T01:36:13;-5.50;99.90
54158;DHT22;40065;49.894;10.358;2024-01-11T01:41:15;-5.50;99.90
54158;DHT22;40065;49.894;10.358;2024-01-11T01:46:22;-5.60;99.90
54158;DHT22;40065;49.894;10.358;2024-01-11T01:51:28;-5.70;99.90
54158;DHT22;40065;49.894;10.358;2024-01-11T01:56:30;-5.70;99.90
54158;DHT22;40065;49.894;10.358;2024-01-11T02:01:33;-5.70;99.90
54158;DHT22;40065;49.894;10.358;2024-01-11T02:06:36;-5.70;99.90
54158;DHT22;40065;49.894;10.358;2024-01-11T02:11:38;-5.70;99.90
54158;DHT22;40065;49.894;10.358;2024-01-11T02:16:41;-5.80;99.90
54158;DHT22;40065;49.894;10.358;2024-01-11T02:21:43;-5.90;99.90
54158;DHT22;40065;49.894;10.358;2024-01-11T02:27:02;-6.00;99.90
54158;DHT22;40065;49.894;10.358;2024-01-11T02:32:04;-5.90;99.90
54158;DHT22;40065;49.894;10.358;2024-01-11T02:37:08;-5.90;99.90
54158;DHT22;40065;49.894;10.358;2024-01-11T02:42:10;-6.00;99.90
54158;DHT22;40065;49.894;10.358;2024-01-11T02:47:11;-6.10;99.90
54158;DHT22;40065;49.894;10.358;2024-01-11T02:52:13;-6.20;99.90
54158;DHT22;40065;49.894;10.358;2024-01-11T02:57:15;-6.00;99.90
54158;DHT22;40065;49.894;10.358;2024-01-11T03:02:17;-6.10;99.90
54158;DHT22;40065;49.894;10.358;2024-01-11T03:07:19;-6.20;99.90
54158;DHT22;40065;49.894;10.358;2024-01-11T03:12:21;-6.20;99.90
54158;DHT22;40065;49.894;10.358;2024-01-11T03:17:23;-6.10;99.90
54158;DHT22;40065;49.894;10.358;2024-01-11T03:22:25;-6.10;99.90
54158;DHT22;40065;49.894;10.358;2024-01-11T03:27:27;-6.20;99.90
54158;DHT22;40065;49.894;10.358;2024-01-11T03:32:29;-6.40;99.90
54158;DHT22;40065;49.894;10.358;2024-01-11T03:37:31;-6.40;99.90
54158;DHT22;40065;49.894;10.358;2024-01-11T03:42:33;-6.40;99.90
54158;DHT22;40065;49.894;10.358;2024-01-11T03:47:35;-6.30;99.90
54158;DHT22;40065;49.894;10.358;2024-01-11T03:52:37;-6.30;99.90
54158;DHT22;40065;49.894;10.358;2024-01-11T03:57:39;-6.40;99.90
54158;DHT22;40065;49.894;10.358;2024-01-11T04:02:40;-6.40;99.90
54158;DHT22;40065;49.894;10.358;2024-01-11T04:07:42;-6.50;99.90
54158;DHT22;40065;49.894;10.358;2024-01-11T04:12:44;-6.50;99.90
54158;DHT22;40065;49.894;10.358;2024-01-11T04:17:46;-6.60;99.90
54158;DHT22;40065;49.894;10.358;2024-01-11T04:22:48;-6.60;99.90
54158;DHT22;40065;49.894;10.358;2024-01-11T04:27:50;-6.60;99.90
54158;DHT22;40065;49.894;10.358;2024-01-11T04:32:52;-6.50;99.90
54158;DHT22;40065;49.894;10.358;2024-01-11T04:37:54;-6.40;99.90
54158;DHT22;40065;49.894;10.358;2024-01-11T04:42:56;-6.50;99.90
54158;DHT22;40065;49.894;10.358;2024-01-11T04:47:57;-6.50;99.90
54158;DHT22;40065;49.894;10.358;2024-01-11T04:53:00;-6.60;99.90
54158;DHT22;40065;49.894;10.358;2024-01-11T04:58:02;-6.70;99.90
54158;DHT22;40065;49.894;10.358;2024-01-11T05:03:04;-6.70;99.90
54158;DHT22;40065;49.894;10.358;2024-01-11T05:08:05;-6.60;99.90
54158;DHT22;40065;49.894;10.358;2024-01-11T05:13:07;-6.80;99.90
54158;DHT22;40065;49.894;10.358;2024-01-11T05:18:09;-6.80;99.90
54158;DHT22;40065;49.894;10.358;2024-01-11T05:23:12;-6.90;99.90
54158;DHT22;40065;49.894;10.358;2024-01-11T05:28:14;-6.80;99.90
54158;DHT22;40065;49.894;10.358;2024-01-11T05:33:16;-6.80;99.90
54158;DHT22;40065;49.894;10.358;2024-01-11T05:38:18;-6.90;99.90
54158;DHT22;40065;49.894;10.358;2024-01-11T05:43:22;-6.90;99.90
54158;DHT22;40065;49.894;10.358;2024-01-11T05:48:24;-6.80;99.90
54158;DHT22;40065;49.894;10.358;2024-01-11T05:53:26;-7.00;99.90
54158;DHT22;40065;49.894;10.358;2024-01-11T05:58:29;-6.80;99.90
54158;DHT22;40065;49.894;10.358;2024-01-11T06:03:31;-6.80;99.90
54158;DHT22;40065;49.894;10.358;2024-01-11T06:08:36;-7.00;99.90
54158;DHT22;40065;49.894;10.358;2024-01-11T06:13:40;-7.00;99.90
54158;DHT22;40065;49.894;10.358;2024-01-11T06:18:42;-7.00;99.90
54158;DHT22;40065;49.894;10.358;2024-01-11T06:23:44;-6.90;99.90
54158;DHT22;40065;49.894;10.358;2024-01-11T06:28:46;-6.80;99.90
54158;DHT22;40065;49.894;10.358;2024-01-11T06:33:48;-6.70;99.90
54158;DHT22;40065;49.894;10.358;2024-01-11T06:38:52;-6.60;99.90
54158;DHT22;40065;49.894;10.358;2024-01-11T06:43:54;-6.70;99.90
54158;DHT22;40065;49.894;10.358;2024-01-11T06:48:59;-6.70;99.90
54158;DHT22;40065;49.894;10.358;2024-01-11T06:54:01;-6.60;99.90
54158;DHT22;40065;49.894;10.358;2024-01-11T06:59:03;-6.50;99.90
54158;DHT22;40065;49.894;10.358;2024-01-11T07:04:05;-6.50;99.90
54158;DHT22;40065;49.894;10.358;2024-01-11T07:09:07;-6.30;99.90
54158;DHT22;40065;49.894;10.358;2024-01-11T07:14:09;-6.40;99.90
54158;DHT22;40065;49.894;10.358;2024-01-11T07:19:11;-6.60;99.90
54158;DHT22;40065;49.894;10.358;2024-01-11T07:24:13;-6.60;99.90
54158;DHT22;40065;49.894;10.358;2024-01-11T07:29:15;-6.80;99.90
54158;DHT22;40065;49.894;10.358;2024-01-11T07:34:17;-6.70;99.90
54158;DHT22;40065;49.894;10.358;2024-01-11T07:39:20;-6.70;99.90
54158;DHT22;40065;49.894;10.358;2024-01-11T07:44:24;-6.70;99.90
54158;DHT22;40065;49.894;10.358;2024-01-11T07:49:25;-6.50;99.90
54158;DHT22;40065;49.894;10.358;2024-01-11T07:54:27;-6.40;99.90
54158;DHT22;40065;49.894;10.358;2024-01-11T07:59:33;-6.30;99.90
54158;DHT22;40065;49.894;10.358;2024-01-11T08:04:37;-6.10;99.90
54158;DHT22;40065;49.894;10.358;2024-01-11T08:09:40;-5.60;99.90
54158;DHT22;40065;49.894;10.358;2024-01-11T08:14:47;-5.00;99.90
54158;DHT22;40065;49.894;10.358;2024-01-11T08:19:49;-4.20;99.90
54158;DHT22;40065;49.894;10.358;2024-01-11T08:24:51;-1.40;99.90
54158;DHT22;40065;49.894;10.358;2024-01-11T08:29:53;0.50;99.90
54158;DHT22;40065;49.894;10.358;2024-01-11T08:34:56;3.30;95.40
54158;DHT22;40065;49.894;10.358;2024-01-11T08:39:58;4.20;93.10
54158;DHT22;40065;49.894;10.358;2024-01-11T08:45:00;4.90;89.20
54158;DHT22;40065;49.894;10.358;2024-01-11T08:50:08;7.60;83.20
54158;DHT22;40065;49.894;10.358;2024-01-11T08:55:13;7.30;77.60
54158;DHT22;40065;49.894;10.358;2024-01-11T09:00:16;8.80;78.90
54158;DHT22;40065;49.894;10.358;2024-01-11T09:05:21;6.70;80.30
54158;DHT22;40065;49.894;10.358;2024-01-11T09:10:23;6.30;80.70
54158;DHT22;40065;49.894;10.358;2024-01-11T09:15:25;5.20;85.50
54158;DHT22;40065;49.894;10.358;2024-01-11T09:20:26;6.90;88.30
54158;DHT22;40065;49.894;10.358;2024-01-11T09:25:31;11.30;73.20
54158;DHT22;40065;49.894;10.358;2024-01-11T09:30:33;12.00;70.80
54158;DHT22;40065;49.894;10.358;2024-01-11T09:35:35;10.30;73.60
54158;DHT22;40065;49.894;10.358;2024-01-11T09:40:37;12.70;62.90
54158;DHT22;40065;49.894;10.358;2024-01-11T09:45:39;8.90;67.30
54158;DHT22;40065;49.894;10.358;2024-01-11T09:50:42;4.00;84.00
54158;DHT22;40065;49.894;10.358;2024-01-11T09:55:44;3.00;89.40
54158;DHT22;40065;49.894;10.358;2024-01-11T10:00:47;2.30;90.90
54158;DHT22;40065;49.894;10.358;2024-01-11T10:05:51;1.10;94.10
54158;DHT22;40065;49.894;10.358;2024-01-11T10:10:55;-0.20;98.00
54158;DHT22;40065;49.894;10.358;2024-01-11T10:16:08;-0.20;99.90
54158;DHT22;40065;49.894;10.358;2024-01-11T10:21:11;1.10;99.80
54158;DHT22;40065;49.894;10.358;2024-01-11T10:26:16;6.00;90.00
54158;DHT22;40065;49.894;10.358;2024-01-11T10:31:18;5.90;89.10
54158;DHT22;40065;49.894;10.358;2024-01-11T10:36:20;9.80;76.30
54158;DHT22;40065;49.894;10.358;2024-01-11T10:41:22;11.50;69.40
54158;DHT22;40065;49.894;10.358;2024-01-11T10:46:25;11.20;72.30
54158;DHT22;40065;49.894;10.358;2024-01-11T10:51:28;12.60;68.50
54158;DHT22;40065;49.894;10.358;2024-01-11T10:56:33;12.40;66.30
54158;DHT22;40065;49.894;10.358;2024-01-11T11:01:37;12.20;66.50
54158;DHT22;40065;49.894;10.358;2024-01-11T11:06:41;12.60;64.70
54158;DHT22;40065;49.894;10.358;2024-01-11T11:11:45;12.10;67.10
54158;DHT22;40065;49.894;10.358;2024-01-11T11:16:48;10.70;69.70
54158;DHT22;40065;49.894;10.358;2024-01-11T11:21:50;11.10;68.30
54158;DHT22;40065;49.894;10.358;2024-01-11T11:26:52;9.80;67.90
54158;DHT22;40065;49.894;10.358;2024-01-11T11:31:54;6.50;77.50
54158;DHT22;40065;49.894;10.358;2024-01-11T11:36:56;7.90;74.40
54158;DHT22;40065;49.894;10.358;2024-01-11T11:41:58;6.70;75.30
54158;DHT22;40065;49.894;10.358;2024-01-11T11:47:19;7.20;75.80
54158;DHT22;40065;49.894;10.358;2024-01-11T11:52:22;7.60;75.00
54158;DHT22;40065;49.894;10.358;2024-01-11T11:57:24;8.30;73.00
54158;DHT22;40065;49.894;10.358;2024-01-11T12:02:27;6.20;79.00
54158;DHT22;40065;49.894;10.358;2024-01-11T12:07:29;5.60;79.70
54158;DHT22;40065;49.894;10.358;2024-01-11T12:12:31;7.70;76.80
54158;DHT22;40065;49.894;10.358;2024-01-11T12:17:33;5.70;80.90
54158;DHT22;40065;49.894;10.358;2024-01-11T12:22:35;5.90;80.40
54158;DHT22;40065;49.894;10.358;2024-01-11T12:27:37;6.50;78.90
54158;DHT22;40065;49.894;10.358;2024-01-11T12:32:39;7.30;75.00
54158;DHT22;40065;49.894;10.358;2024-01-11T12:37:41;4.50;81.70
54158;DHT22;40065;49.894;10.358;2024-01-11T12:42:43;5.20;81.00
54158;DHT22;40065;49.894;10.358;2024-01-11T12:47:45;5.70;79.50
54158;DHT22;40065;49.894;10.358;2024-01-11T12:53:13;6.60;77.80
54158;DHT22;40065;49.894;10.358;2024-01-11T12:58:22;6.50;78.00
54158;DHT22;40065;49.894;10.358;2024-01-11T13:03:25;5.50;81.30
54158;DHT22;40065;49.894;10.358;2024-01-11T13:08:29;5.80;79.60
54158;DHT22;40065;49.894;10.358;2024-01-11T13:13:31;3.60;85.50
54158;DHT22;40065;49.894;10.358;2024-01-11T13:18:33;3.50;86.70
54158;DHT22;40065;49.894;10.358;2024-01-11T13:23:35;3.70;88.50
54158;DHT22;40065;49.894;10.358;2024-01-11T13:28:39;3.60;88.40
54158;DHT22;40065;49.894;10.358;2024-01-11T13:33:42;3.40;89.50
54158;DHT22;40065;49.894;10.358;2024-01-11T13:38:44;3.80;89.10
54158;DHT22;40065;49.894;10.358;2024-01-11T13:43:46;5.00;85.20
54158;DHT22;40065;49.894;10.358;2024-01-11T13:48:48;6.30;82.10
54158;DHT22;40065;49.894;10.358;2024-01-11T13:53:50;6.10;81.40
54158;DHT22;40065;49.894;10.358;2024-01-11T13:58:52;7.00;79.70
54158;DHT22;40065;49.894;10.358;2024-01-11T14:03:53;7.50;77.80
54158;DHT22;40065;49.894;10.358;2024-01-11T14:08:55;7.30;78.50
54158;DHT22;40065;49.894;10.358;2024-01-11T14:13:57;6.80;79.90
54158;DHT22;40065;49.894;10.358;2024-01-11T14:18:59;7.10;79.00
54158;DHT22;40065;49.894;10.358;2024-01-11T14:24:02;7.00;78.50
54158;DHT22;40065;49.894;10.358;2024-01-11T14:29:04;6.50;79.90
54158;DHT22;40065;49.894;10.358;2024-01-11T14:34:06;6.40;80.80
54158;DHT22;40065;49.894;10.358;2024-01-11T14:39:08;5.80;82.80
54158;DHT22;40065;49.894;10.358;2024-01-11T14:44:11;5.40;83.70
54158;DHT22;40065;49.894;10.358;2024-01-11T14:49:13;5.50;84.00
54158;DHT22;40065;49.894;10.358;2024-01-11T14:54:16;5.30;84.30
54158;DHT22;40065;49.894;10.358;2024-01-11T14:59:18;5.00;85.00
54158;DHT22;40065;49.894;10.358;2024-01-11T15:04:20;4.50;87.00
54158;DHT22;40065;49.894;10.358;2024-01-11T15:09:23;3.50;89.50
54158;DHT22;40065;49.894;10.358;2024-01-11T15:14:27;2.60;91.50
54158;DHT22;40065;49.894;10.358;2024-01-11T15:19:29;1.80;93.30
54158;DHT22;40065;49.894;10.358;2024-01-11T15:24:31;1.40;95.10
54158;DHT22;40065;49.894;10.358;2024-01-11T15:29:34;0.90;97.80
54158;DHT22;40065;49.894;10.358;2024-01-11T15:34:36;0.40;99.60
54158;DHT22;40065;49.894;10.358;2024-01-11T15:39:38;0.20;99.80
54158;DHT22;40065;49.894;10.358;2024-01-11T15:44:40;0.00;99.90
54158;DHT22;40065;49.894;10.358;2024-01-11T15:49:42;-0.30;99.90
54158;DHT22;40065;49.894;10.358;2024-01-11T15:54:44;-0.30;99.90
54158;DHT22;40065;49.894;10.358;2024-01-11T15:59:46;-0.60;99.90
54158;DHT22;40065;49.894;10.358;2024-01-11T16:04:48;-0.70;99.90
54158;DHT22;40065;49.894;10.358;2024-01-11T16:09:50;-0.80;99.90
54158;DHT22;40065;49.894;10.358;2024-01-11T16:14:52;-1.00;99.90
54158;DHT22;40065;49.894;10.358;2024-01-11T16:19:55;-1.10;99.90
54158;DHT22;40065;49.894;10.358;2024-01-11T16:24:57;-1.20;99.90
54158;DHT22;40065;49.894;10.358;2024-01-11T16:29:59;-1.30;99.90
54158;DHT22;40065;49.894;10.358;2024-01-11T16:35:05;-1.50;99.90
54158;DHT22;40065;49.894;10.358;2024-01-11T16:40:08;-1.50;99.90
54158;DHT22;40065;49.894;10.358;2024-01-11T16:45:12;-1.60;99.90
54158;DHT22;40065;49.894;10.358;2024-01-11T16:50:14;-1.60;99.90
54158;DHT22;40065;49.894;10.358;2024-01-11T16:55:16;-1.50;99.90
54158;DHT22;40065;49.894;10.358;2024-01-11T17:00:18;-1.60;99.90
54158;DHT22;40065;49.894;10.358;2024-01-11T17:05:21;-1.60;99.90
54158;DHT22;40065;49.894;10.358;2024-01-11T17:10:23;-1.70;99.90
54158;DHT22;40065;49.894;10.358;2024-01-11T17:15:25;-1.80;99.90
54158;DHT22;40065;49.894;10.358;2024-01-11T17:20:28;-2.00;99.90
54158;DHT22;40065;49.894;10.358;2024-01-11T17:25:30;-2.10;99.90
54158;DHT22;40065;49.894;10.358;2024-01-11T17:30:32;-2.20;99.90
54158;DHT22;40065;49.894;10.358;2024-01-11T17:35:34;-2.30;99.90
54158;DHT22;40065;49.894;10.358;2024-01-11T17:40:36;-2.40;99.90
54158;DHT22;40065;49.894;10.358;2024-01-11T17:45:37;-2.30;99.90
54158;DHT22;40065;49.894;10.358;2024-01-11T17:50:39;-2.40;99.90
54158;DHT22;40065;49.894;10.358;2024-01-11T17:55:41;-2.40;99.90
54158;DHT22;40065;49.894;10.358;2024-01-11T18:00:43;-2.40;99.90
54158;DHT22;40065;49.894;10.358;2024-01-11T18:05:45;-2.40;99.90
54158;DHT22;40065;49.894;10.358;2024-01-11T18:10:47;-2.50;99.90
54158;DHT22;40065;49.894;10.358;2024-01-11T18:15:49;-2.40;99.90
54158;DHT22;40065;49.894;10.358;2024-01-11T18:20:52;-2.50;99.90
54158;DHT22;40065;49.894;10.358;2024-01-11T18:25:54;-2.50;99.90
54158;DHT22;40065;49.894;10.358;2024-01-11T18:30:56;-2.50;99.90
54158;DHT22;40065;49.894;10.358;2024-01-11T18:35:58;-2.50;99.90
54158;DHT22;40065;49.894;10.358;2024-01-11T18:41:00;-2.50;99.90
54158;DHT22;40065;49.894;10.358;2024-01-11T18:46:03;-2.50;99.90
54158;DHT22;40065;49.894;10.358;2024-01-11T18:51:05;-2.50;99.90
54158;DHT22;40065;49.894;10.358;2024-01-11T18:56:15;-2.60;99.90
54158;DHT22;40065;49.894;10.358;2024-01-11T19:01:17;-2.00;99.90
54158;DHT22;40065;49.894;10.358;2024-01-11T19:06:20;-1.60;99.90
54158;DHT22;40065;49.894;10.358;2024-01-11T19:11:22;-1.30;99.90
54158;DHT22;40065;49.894;10.358;2024-01-11T19:16:24;-1.70;99.90
54158;DHT22;40065;49.894;10.358;2024-01-11T19:21:26;-1.80;99.90
54158;DHT22;40065;49.894;10.358;2024-01-11T19:26:27;-2.00;99.90
54158;DHT22;40065;49.894;10.358;2024-01-11T19:31:29;-2.20;99.90
54158;DHT22;40065;49.894;10.358;2024-01-11T19:36:31;-2.10;99.90
54158;DHT22;40065;49.894;10.358;2024-01-11T19:41:33;-1.70;99.90
54158;DHT22;40065;49.894;10.358;2024-01-11T19:46:35;-1.50;99.90
54158;DHT22;40065;49.894;10.358;2024-01-11T19:51:37;-1.70;99.90
54158;DHT22;40065;49.894;10.358;2024-01-11T19:56:39;-1.90;99.90
54158;DHT22;40065;49.894;10.358;2024-01-11T20:01:41;-2.40;99.90
54158;DHT22;40065;49.894;10.358;2024-01-11T20:06:44;-2.70;99.90
54158;DHT22;40065;49.894;10.358;2024-01-11T20:11:47;-2.90;99.90
54158;DHT22;40065;49.894;10.358;2024-01-11T20:16:49;-2.90;99.90
54158;DHT22;40065;49.894;10.358;2024-01-11T20:21:51;-3.20;99.90
54158;DHT22;40065;49.894;10.358;2024-01-11T20:26:53;-3.20;99.90
54158;DHT22;40065;49.894;10.358;2024-01-11T20:31:55;-3.30;99.90
54158;DHT22;40065;49.894;10.358;2024-01-11T20:36:57;-3.30;99.90
54158;DHT22;40065;49.894;10.358;2024-01-11T20:42:00;-3.50;99.90
54158;DHT22;40065;49.894;10.358;2024-01-11T20:47:02;-3.50;99.90
54158;DHT22;40065;49.894;10.358;2024-01-11T20:52:04;-3.60;99.90
54158;DHT22;40065;49.894;10.358;2024-01-11T20:57:06;-3.60;99.90
54158;DHT22;40065;49.894;10.358;2024-01-11T21:02:08;-3.70;99.90
54158;DHT22;40065;49.894;10.358;2024-01-11T21:07:10;-3.90;99.90
54158;DHT22;40065;49.894;10.358;2024-01-11T21:12:12;-3.90;99.90
54158;DHT22;40065;49.894;10.358;2024-01-11T21:17:13;-4.00;99.90
54158;DHT22;40065;49.894;10.358;2024-01-11T21:22:15;-4.00;99.90
54158;DHT22;40065;49.894;10.358;2024-01-11T21:27:19;-4.10;99.90
54158;DHT22;40065;49.894;10.358;2024-01-11T21:32:21;-4.20;99.90
54158;DHT22;40065;49.894;10.358;2024-01-11T21:37:23;-4.20;99.90
54158;DHT22;40065;49.894;10.358;2024-01-11T21:42:25;-4.40;99.90
54158;DHT22;40065;49.894;10.358;2024-01-11T21:47:30;-4.30;99.90
54158;DHT22;40065;49.894;10.358;2024-01-11T21:52:32;-4.30;99.90
54158;DHT22;40065;49.894;10.358;2024-01-11T21:57:34;-4.30;99.90
54158;DHT22;40065;49.894;10.358;2024-01-11T22:02:35;-4.30;99.90
54158;DHT22;40065;49.894;10.358;2024-01-11T22:07:37;-4.30;99.90
54158;DHT22;40065;49.894;10.358;2024-01-11T22:12:39;-4.30;99.90
54158;DHT22;40065;49.894;10.358;2024-01-11T22:17:41;-4.30;99.90
54158;DHT22;40065;49.894;10.358;2024-01-11T22:22:43;-4.20;99.90
54158;DHT22;40065;49.894;10.358;2024-01-11T22:27:45;-4.40;99.90
54158;DHT22;40065;49.894;10.358;2024-01-11T22:32:48;-4.50;99.90
54158;DHT22;40065;49.894;10.358;2024-01-11T22:37:50;-4.30;99.90
54158;DHT22;40065;49.894;10.358;2024-01-11T22:42:52;-4.20;99.90
54158;DHT22;40065;49.894;10.358;2024-01-11T22:47:54;-4.20;99.90
54158;DHT22;40065;49.894;10.358;2024-01-11T22:52:56;-4.20;99.90
54158;DHT22;40065;49.894;10.358;2024-01-11T22:57:59;-4.10;99.90
54158;DHT22;40065;49.894;10.358;2024-01-11T23:03:01;-4.10;99.90
54158;DHT22;40065;49.894;10.358;2024-01-11T23:08:03;-4.00;99.90
54158;DHT22;40065;49.894;10.358;2024-01-11T23:13:05;-4.10;99.90
54158;DHT22;40065;49.894;10.358;2024-01-11T23:18:07;-3.90;99.90
54158;DHT22;40065;49.894;10.358;2024-01-11T23:23:10;-3.80;99.90
54158;DHT22;40065;49.894;10.358;2024-01-11T23:28:12;-3.80;99.90
54158;DHT22;40065;49.894;10.358;2024-01-11T23:33:14;-3.80;99.90
54158;DHT22;40065;49.894;10.358;2024-01-11T23:38:16;-3.80;99.90
54158;DHT22;40065;49.894;10.358;2024-01-11T23:43:18;-4.00;99.90
54158;DHT22;40065;49.894;10.358;2024-01-11T23:48:20;-4.00;99.90
54158;DHT22;40065;49.894;10.358;2024-01-11T23:53:22;-4.00;99.90
54158;DHT22;40065;49.894;10.358;2024-01-11T23:58:24;-4.00;99.90
